Delta Virtual Airport Information Service

Apia Faleolo International Airport

ICAO: NSFA Country: Samoa
Latitude: -13.8296 Longitude: -171.997
Latest Arrival : DAC7566 (PHTO-NSFA) Latest Departure : DAC78978 (NSFA-NTAA)


WX CaptureLIVE
Data provided by noaa.gov | Fetched at 09:31:38

METAR :

TAF : NSFA 281113Z 2812/2912 14005KT 9999 -SHRA FEW020 SCT040


Runway Data for NSFA
Data provided by openaviationdata.com

Runway ID Mag Var Hdg Length Elevation Surface ILS Freq ILS Id ILS Slope
8 12 77° 9840 ft 58 ft Asphalt 109.9 IAP 3
26 12 257° 9840 ft 58 ft Asphalt -- -- --

Apia Faleolo International Airport, Samoa
Use only for reference purposes



Not for navigational purposes.